sensor_id;sensor_type;location;lat;lon;timestamp;P1;durP1;ratioP1;P2;durP2;ratioP2
46054;SDS011;31788;6.954;-71.872;2023-01-28T00:01:11;28.33;;;11.07;;
46054;SDS011;31788;6.954;-71.872;2023-01-28T00:03:39;90.53;;;15.27;;
46054;SDS011;31788;6.954;-71.872;2023-01-28T00:06:07;60.83;;;11.70;;
46054;SDS011;31788;6.954;-71.872;2023-01-28T00:08:37;34.47;;;9.75;;
46054;SDS011;31788;6.954;-71.872;2023-01-28T00:11:04;51.88;;;11.30;;
46054;SDS011;31788;6.954;-71.872;2023-01-28T00:13:32;27.07;;;10.07;;
46054;SDS011;31788;6.954;-71.872;2023-01-28T00:16:00;29.88;;;9.82;;
46054;SDS011;31788;6.954;-71.872;2023-01-28T00:18:29;20.88;;;9.38;;
46054;SDS011;31788;6.954;-71.872;2023-01-28T00:23:31;19.50;;;9.88;;
46054;SDS011;31788;6.954;-71.872;2023-01-28T00:26:00;23.58;;;9.65;;
46054;SDS011;31788;6.954;-71.872;2023-01-28T00:28:29;16.65;;;9.07;;
46054;SDS011;31788;6.954;-71.872;2023-01-28T00:30:56;18.20;;;9.30;;
46054;SDS011;31788;6.954;-71.872;2023-01-28T00:33:22;21.35;;;9.50;;
46054;SDS011;31788;6.954;-71.872;2023-01-28T00:35:59;21.50;;;9.47;;
46054;SDS011;31788;6.954;-71.872;2023-01-28T00:38:26;16.77;;;9.95;;
46054;SDS011;31788;6.954;-71.872;2023-01-28T00:40:53;15.75;;;9.68;;
46054;SDS011;31788;6.954;-71.872;2023-01-28T00:43:20;15.63;;;9.43;;
46054;SDS011;31788;6.954;-71.872;2023-01-28T00:45:47;13.05;;;9.00;;
46054;SDS011;31788;6.954;-71.872;2023-01-28T00:48:13;14.98;;;9.00;;
46054;SDS011;31788;6.954;-71.872;2023-01-28T00:50:40;15.57;;;9.23;;
46054;SDS011;31788;6.954;-71.872;2023-01-28T00:53:07;12.90;;;8.98;;
46054;SDS011;31788;6.954;-71.872;2023-01-28T00:55:34;12.13;;;8.80;;
46054;SDS011;31788;6.954;-71.872;2023-01-28T00:58:00;17.08;;;10.20;;
46054;SDS011;31788;6.954;-71.872;2023-01-28T01:00:27;13.23;;;8.50;;
46054;SDS011;31788;6.954;-71.872;2023-01-28T01:02:53;14.43;;;8.45;;
46054;SDS011;31788;6.954;-71.872;2023-01-28T01:05:20;15.70;;;9.37;;
46054;SDS011;31788;6.954;-71.872;2023-01-28T01:07:46;14.13;;;9.50;;
46054;SDS011;31788;6.954;-71.872;2023-01-28T01:10:14;15.02;;;8.82;;
46054;SDS011;31788;6.954;-71.872;2023-01-28T01:12:42;14.50;;;9.38;;
46054;SDS011;31788;6.954;-71.872;2023-01-28T01:15:11;18.92;;;9.27;;
46054;SDS011;31788;6.954;-71.872;2023-01-28T01:17:39;15.55;;;8.73;;
46054;SDS011;31788;6.954;-71.872;2023-01-28T01:20:10;18.02;;;10.38;;
46054;SDS011;31788;6.954;-71.872;2023-01-28T01:22:41;15.73;;;9.95;;
46054;SDS011;31788;6.954;-71.872;2023-01-28T01:25:08;14.15;;;9.60;;
46054;SDS011;31788;6.954;-71.872;2023-01-28T01:27:37;16.70;;;9.50;;
46054;SDS011;31788;6.954;-71.872;2023-01-28T01:30:04;13.80;;;9.13;;
46054;SDS011;31788;6.954;-71.872;2023-01-28T01:32:32;14.23;;;8.70;;
46054;SDS011;31788;6.954;-71.872;2023-01-28T01:34:59;15.15;;;9.35;;
46054;SDS011;31788;6.954;-71.872;2023-01-28T01:37:26;14.83;;;9.03;;
46054;SDS011;31788;6.954;-71.872;2023-01-28T01:39:53;12.70;;;8.52;;
46054;SDS011;31788;6.954;-71.872;2023-01-28T01:42:21;12.80;;;8.90;;
46054;SDS011;31788;6.954;-71.872;2023-01-28T01:44:59;13.20;;;9.07;;
46054;SDS011;31788;6.954;-71.872;2023-01-28T01:47:30;12.85;;;8.43;;
46054;SDS011;31788;6.954;-71.872;2023-01-28T01:50:27;14.02;;;9.02;;
46054;SDS011;31788;6.954;-71.872;2023-01-28T01:52:59;11.13;;;8.30;;
46054;SDS011;31788;6.954;-71.872;2023-01-28T01:55:32;16.85;;;8.93;;
46054;SDS011;31788;6.954;-71.872;2023-01-28T01:58:02;15.00;;;8.98;;
46054;SDS011;31788;6.954;-71.872;2023-01-28T02:00:34;12.73;;;7.95;;
46054;SDS011;31788;6.954;-71.872;2023-01-28T02:03:00;14.18;;;8.68;;
46054;SDS011;31788;6.954;-71.872;2023-01-28T02:05:27;14.97;;;9.00;;
46054;SDS011;31788;6.954;-71.872;2023-01-28T02:07:55;11.38;;;8.43;;
46054;SDS011;31788;6.954;-71.872;2023-01-28T02:10:42;15.95;;;8.40;;
46054;SDS011;31788;6.954;-71.872;2023-01-28T02:13:10;12.13;;;8.10;;
46054;SDS011;31788;6.954;-71.872;2023-01-28T02:15:37;14.90;;;9.18;;
46054;SDS011;31788;6.954;-71.872;2023-01-28T02:18:03;13.82;;;8.88;;
46054;SDS011;31788;6.954;-71.872;2023-01-28T02:38:01;12.57;;;8.05;;
46054;SDS011;31788;6.954;-71.872;2023-01-28T02:40:33;13.40;;;9.93;;
46054;SDS011;31788;6.954;-71.872;2023-01-28T02:49:14;11.48;;;8.10;;
46054;SDS011;31788;6.954;-71.872;2023-01-28T02:52:06;11.73;;;7.97;;
46054;SDS011;31788;6.954;-71.872;2023-01-28T02:54:40;9.63;;;7.03;;
46054;SDS011;31788;6.954;-71.872;2023-01-28T03:00:33;14.13;;;8.87;;
46054;SDS011;31788;6.954;-71.872;2023-01-28T03:03:21;15.43;;;10.63;;
46054;SDS011;31788;6.954;-71.872;2023-01-28T03:06:03;14.15;;;9.23;;
46054;SDS011;31788;6.954;-71.872;2023-01-28T03:08:44;12.20;;;7.88;;
46054;SDS011;31788;6.954;-71.872;2023-01-28T03:11:39;15.80;;;7.72;;
46054;SDS011;31788;6.954;-71.872;2023-01-28T03:14:35;9.07;;;7.05;;
46054;SDS011;31788;6.954;-71.872;2023-01-28T03:20:38;10.52;;;7.30;;
46054;SDS011;31788;6.954;-71.872;2023-01-28T03:23:46;10.07;;;6.90;;
46054;SDS011;31788;6.954;-71.872;2023-01-28T03:29:53;9.02;;;6.70;;
46054;SDS011;31788;6.954;-71.872;2023-01-28T03:32:43;8.98;;;6.70;;
46054;SDS011;31788;6.954;-71.872;2023-01-28T03:35:29;10.82;;;7.18;;
46054;SDS011;31788;6.954;-71.872;2023-01-28T03:38:18;10.23;;;7.20;;
46054;SDS011;31788;6.954;-71.872;2023-01-28T03:40:51;12.07;;;8.00;;
46054;SDS011;31788;6.954;-71.872;2023-01-28T03:43:20;12.57;;;9.05;;
46054;SDS011;31788;6.954;-71.872;2023-01-28T03:45:47;10.90;;;7.80;;
46054;SDS011;31788;6.954;-71.872;2023-01-28T03:48:17;12.18;;;7.60;;
46054;SDS011;31788;6.954;-71.872;2023-01-28T03:50:44;11.80;;;7.32;;
46054;SDS011;31788;6.954;-71.872;2023-01-28T03:53:11;11.23;;;7.40;;
46054;SDS011;31788;6.954;-71.872;2023-01-28T03:55:38;11.50;;;7.35;;
46054;SDS011;31788;6.954;-71.872;2023-01-28T03:58:05;11.18;;;7.72;;
46054;SDS011;31788;6.954;-71.872;2023-01-28T04:00:31;15.87;;;7.87;;
46054;SDS011;31788;6.954;-71.872;2023-01-28T04:02:59;9.68;;;7.03;;
46054;SDS011;31788;6.954;-71.872;2023-01-28T04:05:25;10.85;;;7.63;;
46054;SDS011;31788;6.954;-71.872;2023-01-28T04:07:55;9.98;;;7.15;;
46054;SDS011;31788;6.954;-71.872;2023-01-28T04:10:22;11.85;;;7.07;;
46054;SDS011;31788;6.954;-71.872;2023-01-28T04:12:48;9.97;;;7.10;;
46054;SDS011;31788;6.954;-71.872;2023-01-28T04:15:18;10.20;;;6.95;;
46054;SDS011;31788;6.954;-71.872;2023-01-28T04:17:47;11.13;;;7.18;;
46054;SDS011;31788;6.954;-71.872;2023-01-28T04:20:14;13.38;;;7.03;;
46054;SDS011;31788;6.954;-71.872;2023-01-28T04:22:41;9.63;;;7.18;;
46054;SDS011;31788;6.954;-71.872;2023-01-28T04:25:08;13.75;;;7.32;;
46054;SDS011;31788;6.954;-71.872;2023-01-28T04:27:35;14.18;;;6.88;;
46054;SDS011;31788;6.954;-71.872;2023-01-28T04:30:01;11.53;;;7.60;;
46054;SDS011;31788;6.954;-71.872;2023-01-28T04:32:28;10.68;;;7.32;;
46054;SDS011;31788;6.954;-71.872;2023-01-28T04:34:54;14.82;;;9.10;;
46054;SDS011;31788;6.954;-71.872;2023-01-28T04:37:21;28.27;;;13.77;;
46054;SDS011;31788;6.954;-71.872;2023-01-28T04:39:47;33.47;;;16.73;;
46054;SDS011;31788;6.954;-71.872;2023-01-28T04:42:15;50.97;;;22.40;;
46054;SDS011;31788;6.954;-71.872;2023-01-28T04:44:42;42.35;;;20.38;;
46054;SDS011;31788;6.954;-71.872;2023-01-28T04:47:08;40.80;;;17.60;;
46054;SDS011;31788;6.954;-71.872;2023-01-28T04:49:35;44.40;;;19.55;;
46054;SDS011;31788;6.954;-71.872;2023-01-28T04:52:01;62.43;;;26.67;;
46054;SDS011;31788;6.954;-71.872;2023-01-28T04:54:28;118.60;;;47.17;;
46054;SDS011;31788;6.954;-71.872;2023-01-28T04:56:54;88.55;;;37.97;;
46054;SDS011;31788;6.954;-71.872;2023-01-28T04:59:21;54.22;;;24.15;;
46054;SDS011;31788;6.954;-71.872;2023-01-28T05:01:48;53.95;;;23.95;;
46054;SDS011;31788;6.954;-71.872;2023-01-28T05:04:14;66.78;;;27.55;;
46054;SDS011;31788;6.954;-71.872;2023-01-28T05:06:41;42.20;;;18.65;;
46054;SDS011;31788;6.954;-71.872;2023-01-28T05:09:08;64.53;;;27.27;;
46054;SDS011;31788;6.954;-71.872;2023-01-28T05:11:35;50.38;;;21.65;;
46054;SDS011;31788;6.954;-71.872;2023-01-28T05:14:01;43.72;;;18.52;;
46054;SDS011;31788;6.954;-71.872;2023-01-28T05:16:28;46.43;;;19.47;;
46054;SDS011;31788;6.954;-71.872;2023-01-28T05:18:54;35.53;;;16.38;;
46054;SDS011;31788;6.954;-71.872;2023-01-28T05:21:21;29.83;;;14.63;;
46054;SDS011;31788;6.954;-71.872;2023-01-28T05:23:47;31.63;;;15.20;;
46054;SDS011;31788;6.954;-71.872;2023-01-28T05:26:14;29.20;;;14.48;;
46054;SDS011;31788;6.954;-71.872;2023-01-28T05:28:40;34.28;;;15.75;;
46054;SDS011;31788;6.954;-71.872;2023-01-28T05:31:07;22.75;;;12.25;;
46054;SDS011;31788;6.954;-71.872;2023-01-28T05:33:35;26.65;;;13.20;;
46054;SDS011;31788;6.954;-71.872;2023-01-28T05:36:02;21.42;;;12.05;;
46054;SDS011;31788;6.954;-71.872;2023-01-28T05:38:29;21.77;;;11.63;;
46054;SDS011;31788;6.954;-71.872;2023-01-28T05:40:56;24.38;;;11.23;;
46054;SDS011;31788;6.954;-71.872;2023-01-28T05:43:22;16.80;;;10.68;;
46054;SDS011;31788;6.954;-71.872;2023-01-28T05:45:49;19.52;;;10.88;;
46054;SDS011;31788;6.954;-71.872;2023-01-28T05:48:15;16.48;;;9.00;;
46054;SDS011;31788;6.954;-71.872;2023-01-28T05:50:42;15.65;;;8.70;;
46054;SDS011;31788;6.954;-71.872;2023-01-28T05:53:11;15.60;;;9.20;;
46054;SDS011;31788;6.954;-71.872;2023-01-28T05:55:37;11.88;;;7.95;;
46054;SDS011;31788;6.954;-71.872;2023-01-28T05:58:04;15.00;;;8.23;;
46054;SDS011;31788;6.954;-71.872;2023-01-28T06:00:30;14.70;;;7.93;;
46054;SDS011;31788;6.954;-71.872;2023-01-28T06:02:57;12.52;;;7.32;;
46054;SDS011;31788;6.954;-71.872;2023-01-28T06:05:23;12.80;;;7.27;;
46054;SDS011;31788;6.954;-71.872;2023-01-28T06:07:50;10.30;;;7.20;;
46054;SDS011;31788;6.954;-71.872;2023-01-28T06:10:17;12.20;;;7.32;;
46054;SDS011;31788;6.954;-71.872;2023-01-28T06:12:43;10.57;;;6.78;;
46054;SDS011;31788;6.954;-71.872;2023-01-28T06:15:10;12.20;;;7.25;;
46054;SDS011;31788;6.954;-71.872;2023-01-28T06:17:37;11.02;;;6.95;;
46054;SDS011;31788;6.954;-71.872;2023-01-28T06:20:03;13.32;;;7.53;;
46054;SDS011;31788;6.954;-71.872;2023-01-28T06:22:30;9.73;;;6.43;;
46054;SDS011;31788;6.954;-71.872;2023-01-28T06:24:57;12.00;;;6.82;;
46054;SDS011;31788;6.954;-71.872;2023-01-28T06:27:23;11.98;;;7.05;;
46054;SDS011;31788;6.954;-71.872;2023-01-28T06:29:50;16.60;;;7.68;;
46054;SDS011;31788;6.954;-71.872;2023-01-28T06:32:16;12.40;;;7.18;;
46054;SDS011;31788;6.954;-71.872;2023-01-28T06:34:43;11.05;;;7.13;;
46054;SDS011;31788;6.954;-71.872;2023-01-28T06:37:13;11.73;;;7.37;;
46054;SDS011;31788;6.954;-71.872;2023-01-28T06:39:40;11.20;;;7.07;;
46054;SDS011;31788;6.954;-71.872;2023-01-28T06:42:06;10.32;;;7.32;;
46054;SDS011;31788;6.954;-71.872;2023-01-28T06:44:33;9.95;;;7.18;;
46054;SDS011;31788;6.954;-71.872;2023-01-28T06:46:59;12.35;;;6.90;;
46054;SDS011;31788;6.954;-71.872;2023-01-28T06:49:26;13.02;;;6.60;;
46054;SDS011;31788;6.954;-71.872;2023-01-28T06:51:53;12.23;;;6.80;;
46054;SDS011;31788;6.954;-71.872;2023-01-28T06:54:19;10.23;;;6.23;;
46054;SDS011;31788;6.954;-71.872;2023-01-28T06:56:46;13.53;;;6.47;;
46054;SDS011;31788;6.954;-71.872;2023-01-28T06:59:13;10.75;;;6.47;;
46054;SDS011;31788;6.954;-71.872;2023-01-28T07:01:39;10.85;;;7.00;;
46054;SDS011;31788;6.954;-71.872;2023-01-28T07:04:06;14.52;;;7.85;;
46054;SDS011;31788;6.954;-71.872;2023-01-28T07:06:33;11.55;;;6.72;;
46054;SDS011;31788;6.954;-71.872;2023-01-28T07:08:59;10.10;;;7.03;;
46054;SDS011;31788;6.954;-71.872;2023-01-28T07:11:26;11.17;;;6.60;;
46054;SDS011;31788;6.954;-71.872;2023-01-28T07:13:52;12.80;;;6.90;;
46054;SDS011;31788;6.954;-71.872;2023-01-28T07:16:19;10.75;;;6.53;;
46054;SDS011;31788;6.954;-71.872;2023-01-28T07:18:46;9.02;;;6.15;;
46054;SDS011;31788;6.954;-71.872;2023-01-28T07:21:12;10.55;;;6.20;;
46054;SDS011;31788;6.954;-71.872;2023-01-28T07:23:39;11.27;;;6.47;;
46054;SDS011;31788;6.954;-71.872;2023-01-28T07:26:05;12.23;;;6.47;;
46054;SDS011;31788;6.954;-71.872;2023-01-28T07:28:32;8.55;;;5.97;;
46054;SDS011;31788;6.954;-71.872;2023-01-28T07:30:59;8.88;;;5.90;;
46054;SDS011;31788;6.954;-71.872;2023-01-28T07:33:25;8.57;;;5.47;;
46054;SDS011;31788;6.954;-71.872;2023-01-28T07:35:52;9.15;;;6.13;;
46054;SDS011;31788;6.954;-71.872;2023-01-28T07:38:18;7.53;;;5.60;;
46054;SDS011;31788;6.954;-71.872;2023-01-28T07:40:45;7.90;;;5.32;;
46054;SDS011;31788;6.954;-71.872;2023-01-28T07:43:12;7.40;;;5.30;;
46054;SDS011;31788;6.954;-71.872;2023-01-28T07:45:39;8.07;;;5.68;;
46054;SDS011;31788;6.954;-71.872;2023-01-28T07:48:06;6.43;;;5.35;;
46054;SDS011;31788;6.954;-71.872;2023-01-28T07:50:35;8.40;;;5.57;;
46054;SDS011;31788;6.954;-71.872;2023-01-28T07:53:03;8.75;;;5.53;;
46054;SDS011;31788;6.954;-71.872;2023-01-28T07:55:31;8.70;;;5.65;;
46054;SDS011;31788;6.954;-71.872;2023-01-28T07:58:00;9.13;;;5.63;;
46054;SDS011;31788;6.954;-71.872;2023-01-28T08:00:29;8.43;;;5.53;;
46054;SDS011;31788;6.954;-71.872;2023-01-28T08:02:59;8.55;;;5.50;;
46054;SDS011;31788;6.954;-71.872;2023-01-28T08:05:28;8.00;;;5.40;;
46054;SDS011;31788;6.954;-71.872;2023-01-28T08:08:17;7.85;;;5.30;;
46054;SDS011;31788;6.954;-71.872;2023-01-28T08:10:44;10.02;;;5.32;;
46054;SDS011;31788;6.954;-71.872;2023-01-28T08:13:11;9.30;;;5.30;;
46054;SDS011;31788;6.954;-71.872;2023-01-28T08:15:39;7.57;;;5.18;;
46054;SDS011;31788;6.954;-71.872;2023-01-28T08:18:06;7.25;;;5.43;;
46054;SDS011;31788;6.954;-71.872;2023-01-28T08:20:34;6.90;;;5.65;;
46054;SDS011;31788;6.954;-71.872;2023-01-28T08:23:07;8.60;;;5.57;;
46054;SDS011;31788;6.954;-71.872;2023-01-28T08:25:36;8.55;;;5.55;;
46054;SDS011;31788;6.954;-71.872;2023-01-28T08:28:03;7.53;;;5.53;;
46054;SDS011;31788;6.954;-71.872;2023-01-28T08:30:31;7.90;;;5.55;;
46054;SDS011;31788;6.954;-71.872;2023-01-28T08:32:58;8.20;;;5.90;;
46054;SDS011;31788;6.954;-71.872;2023-01-28T08:35:26;8.40;;;5.50;;
46054;SDS011;31788;6.954;-71.872;2023-01-28T08:37:53;7.43;;;5.30;;
46054;SDS011;31788;6.954;-71.872;2023-01-28T08:40:23;8.95;;;5.50;;
46054;SDS011;31788;6.954;-71.872;2023-01-28T08:42:50;9.17;;;5.80;;
46054;SDS011;31788;6.954;-71.872;2023-01-28T08:45:18;6.43;;;5.10;;
46054;SDS011;31788;6.954;-71.872;2023-01-28T08:47:50;8.90;;;5.30;;
46054;SDS011;31788;6.954;-71.872;2023-01-28T08:50:18;6.85;;;5.10;;
46054;SDS011;31788;6.954;-71.872;2023-01-28T08:52:46;6.70;;;5.00;;
46054;SDS011;31788;6.954;-71.872;2023-01-28T08:55:14;6.72;;;5.20;;
46054;SDS011;31788;6.954;-71.872;2023-01-28T08:57:43;6.82;;;5.13;;
46054;SDS011;31788;6.954;-71.872;2023-01-28T09:00:10;7.80;;;5.20;;
46054;SDS011;31788;6.954;-71.872;2023-01-28T09:02:37;7.88;;;4.78;;
46054;SDS011;31788;6.954;-71.872;2023-01-28T09:05:04;8.93;;;5.13;;
46054;SDS011;31788;6.954;-71.872;2023-01-28T09:07:35;6.60;;;5.05;;
46054;SDS011;31788;6.954;-71.872;2023-01-28T09:10:03;7.05;;;4.72;;
46054;SDS011;31788;6.954;-71.872;2023-01-28T09:12:31;10.65;;;5.13;;
46054;SDS011;31788;6.954;-71.872;2023-01-28T09:14:57;8.73;;;5.28;;
46054;SDS011;31788;6.954;-71.872;2023-01-28T09:17:24;6.93;;;4.82;;
46054;SDS011;31788;6.954;-71.872;2023-01-28T09:19:51;7.87;;;5.37;;
46054;SDS011;31788;6.954;-71.872;2023-01-28T09:22:17;9.60;;;5.20;;
46054;SDS011;31788;6.954;-71.872;2023-01-28T09:24:44;7.75;;;5.05;;
46054;SDS011;31788;6.954;-71.872;2023-01-28T09:27:11;10.10;;;5.00;;
46054;SDS011;31788;6.954;-71.872;2023-01-28T09:29:37;9.87;;;5.23;;
46054;SDS011;31788;6.954;-71.872;2023-01-28T09:32:04;8.77;;;4.97;;
46054;SDS011;31788;6.954;-71.872;2023-01-28T09:34:31;7.55;;;4.72;;
46054;SDS011;31788;6.954;-71.872;2023-01-28T09:36:58;8.13;;;4.80;;
46054;SDS011;31788;6.954;-71.872;2023-01-28T09:39:25;7.68;;;5.10;;
46054;SDS011;31788;6.954;-71.872;2023-01-28T09:41:59;9.55;;;5.40;;
46054;SDS011;31788;6.954;-71.872;2023-01-28T09:47:39;7.28;;;4.80;;
46054;SDS011;31788;6.954;-71.872;2023-01-28T09:50:19;6.93;;;4.93;;
46054;SDS011;31788;6.954;-71.872;2023-01-28T09:53:09;17.00;;;5.65;;
46054;SDS011;31788;6.954;-71.872;2023-01-28T09:55:50;18.93;;;5.50;;
46054;SDS011;31788;6.954;-71.872;2023-01-28T09:58:18;8.15;;;4.82;;
46054;SDS011;31788;6.954;-71.872;2023-01-28T10:03:32;6.47;;;4.60;;
46054;SDS011;31788;6.954;-71.872;2023-01-28T10:09:07;7.60;;;5.00;;
46054;SDS011;31788;6.954;-71.872;2023-01-28T10:17:04;7.40;;;4.80;;
46054;SDS011;31788;6.954;-71.872;2023-01-28T10:19:41;7.40;;;4.95;;
46054;SDS011;31788;6.954;-71.872;2023-01-28T10:22:22;10.05;;;5.22;;
46054;SDS011;31788;6.954;-71.872;2023-01-28T10:24:57;6.57;;;5.25;;
46054;SDS011;31788;6.954;-71.872;2023-01-28T10:27:31;7.90;;;5.10;;
46054;SDS011;31788;6.954;-71.872;2023-01-28T10:30:09;7.85;;;4.93;;
46054;SDS011;31788;6.954;-71.872;2023-01-28T10:33:10;9.55;;;5.32;;
46054;SDS011;31788;6.954;-71.872;2023-01-28T10:35:51;7.37;;;5.00;;
46054;SDS011;31788;6.954;-71.872;2023-01-28T10:38:20;7.82;;;5.10;;
46054;SDS011;31788;6.954;-71.872;2023-01-28T10:40:51;7.05;;;5.18;;
46054;SDS011;31788;6.954;-71.872;2023-01-28T10:43:22;7.73;;;5.40;;
46054;SDS011;31788;6.954;-71.872;2023-01-28T10:46:07;6.75;;;4.88;;
46054;SDS011;31788;6.954;-71.872;2023-01-28T10:48:47;7.47;;;4.75;;
46054;SDS011;31788;6.954;-71.872;2023-01-28T10:51:41;10.20;;;5.15;;
46054;SDS011;31788;6.954;-71.872;2023-01-28T10:54:27;8.63;;;5.22;;
46054;SDS011;31788;6.954;-71.872;2023-01-28T10:56:54;7.72;;;5.00;;
46054;SDS011;31788;6.954;-71.872;2023-01-28T11:02:00;7.87;;;5.17;;
46054;SDS011;31788;6.954;-71.872;2023-01-28T11:04:47;8.68;;;4.93;;
46054;SDS011;31788;6.954;-71.872;2023-01-28T11:07:24;10.77;;;4.93;;
46054;SDS011;31788;6.954;-71.872;2023-01-28T11:09:51;7.75;;;4.75;;
46054;SDS011;31788;6.954;-71.872;2023-01-28T11:12:25;8.45;;;5.07;;
46054;SDS011;31788;6.954;-71.872;2023-01-28T11:17:24;6.47;;;4.70;;
46054;SDS011;31788;6.954;-71.872;2023-01-28T11:19:54;9.43;;;5.20;;
46054;SDS011;31788;6.954;-71.872;2023-01-28T11:22:32;8.57;;;4.93;;
46054;SDS011;31788;6.954;-71.872;2023-01-28T11:25:15;11.70;;;4.70;;
46054;SDS011;31788;6.954;-71.872;2023-01-28T11:27:56;7.03;;;4.63;;
46054;SDS011;31788;6.954;-71.872;2023-01-28T11:32:57;9.87;;;4.10;;
46054;SDS011;31788;6.954;-71.872;2023-01-28T11:35:37;8.27;;;4.30;;
46054;SDS011;31788;6.954;-71.872;2023-01-28T11:38:10;7.53;;;3.83;;
46054;SDS011;31788;6.954;-71.872;2023-01-28T11:40:49;7.90;;;3.70;;
46054;SDS011;31788;6.954;-71.872;2023-01-28T11:43:17;9.35;;;3.75;;
46054;SDS011;31788;6.954;-71.872;2023-01-28T11:46:00;8.55;;;4.00;;
46054;SDS011;31788;6.954;-71.872;2023-01-28T12:08:49;11.38;;;4.15;;
46054;SDS011;31788;6.954;-71.872;2023-01-28T12:25:31;17.30;;;4.82;;
46054;SDS011;31788;6.954;-71.872;2023-01-28T12:31:08;14.00;;;4.60;;
46054;SDS011;31788;6.954;-71.872;2023-01-28T12:40:00;15.13;;;5.07;;
46054;SDS011;31788;6.954;-71.872;2023-01-28T12:42:41;12.90;;;5.45;;
46054;SDS011;31788;6.954;-71.872;2023-01-28T12:45:17;11.73;;;5.00;;
46054;SDS011;31788;6.954;-71.872;2023-01-28T12:50:56;9.18;;;5.45;;
46054;SDS011;31788;6.954;-71.872;2023-01-28T12:56:50;11.35;;;4.88;;
46054;SDS011;31788;6.954;-71.872;2023-01-28T12:59:19;12.07;;;5.50;;
46054;SDS011;31788;6.954;-71.872;2023-01-28T13:07:34;8.52;;;4.88;;
46054;SDS011;31788;6.954;-71.872;2023-01-28T13:12:37;7.13;;;3.92;;
46054;SDS011;31788;6.954;-71.872;2023-01-28T13:15:10;7.90;;;3.72;;
46054;SDS011;31788;6.954;-71.872;2023-01-28T13:18:02;8.80;;;3.88;;
46054;SDS011;31788;6.954;-71.872;2023-01-28T13:20:37;9.55;;;4.00;;
46054;SDS011;31788;6.954;-71.872;2023-01-28T13:25:56;8.05;;;3.90;;
46054;SDS011;31788;6.954;-71.872;2023-01-28T13:28:36;7.07;;;4.00;;
46054;SDS011;31788;6.954;-71.872;2023-01-28T13:31:04;9.82;;;4.20;;
46054;SDS011;31788;6.954;-71.872;2023-01-28T13:33:39;6.88;;;3.95;;
46054;SDS011;31788;6.954;-71.872;2023-01-28T13:38:42;6.93;;;4.15;;
46054;SDS011;31788;6.954;-71.872;2023-01-28T13:41:10;8.10;;;4.70;;
46054;SDS011;31788;6.954;-71.872;2023-01-28T13:43:38;7.85;;;4.78;;
46054;SDS011;31788;6.954;-71.872;2023-01-28T13:46:14;8.18;;;4.80;;
46054;SDS011;31788;6.954;-71.872;2023-01-28T13:48:54;7.93;;;4.80;;
46054;SDS011;31788;6.954;-71.872;2023-01-28T13:51:26;8.75;;;4.65;;
46054;SDS011;31788;6.954;-71.872;2023-01-28T13:54:06;7.97;;;4.70;;
46054;SDS011;31788;6.954;-71.872;2023-01-28T14:05:05;7.53;;;5.03;;
46054;SDS011;31788;6.954;-71.872;2023-01-28T14:10:32;9.82;;;5.07;;
46054;SDS011;31788;6.954;-71.872;2023-01-28T14:15:57;12.63;;;4.50;;
46054;SDS011;31788;6.954;-71.872;2023-01-28T14:18:35;9.52;;;4.95;;
46054;SDS011;31788;6.954;-71.872;2023-01-28T14:21:11;9.23;;;4.93;;
46054;SDS011;31788;6.954;-71.872;2023-01-28T14:23:43;8.85;;;5.38;;
46054;SDS011;31788;6.954;-71.872;2023-01-28T14:26:26;8.18;;;4.90;;
46054;SDS011;31788;6.954;-71.872;2023-01-28T14:31:50;7.20;;;4.70;;
46054;SDS011;31788;6.954;-71.872;2023-01-28T14:34:33;8.07;;;4.68;;
46054;SDS011;31788;6.954;-71.872;2023-01-28T14:37:05;8.50;;;4.63;;
46054;SDS011;31788;6.954;-71.872;2023-01-28T14:39:41;7.85;;;4.70;;
46054;SDS011;31788;6.954;-71.872;2023-01-28T14:42:18;7.00;;;4.22;;
46054;SDS011;31788;6.954;-71.872;2023-01-28T14:44:47;9.13;;;4.82;;
46054;SDS011;31788;6.954;-71.872;2023-01-28T14:52:57;9.25;;;4.55;;
46054;SDS011;31788;6.954;-71.872;2023-01-28T14:58:28;7.07;;;4.30;;
46054;SDS011;31788;6.954;-71.872;2023-01-28T15:01:01;7.30;;;4.28;;
46054;SDS011;31788;6.954;-71.872;2023-01-28T15:03:28;9.23;;;4.40;;
46054;SDS011;31788;6.954;-71.872;2023-01-28T15:06:05;11.05;;;4.63;;
46054;SDS011;31788;6.954;-71.872;2023-01-28T15:08:40;9.43;;;4.70;;
46054;SDS011;31788;6.954;-71.872;2023-01-28T15:11:10;8.05;;;4.35;;
46054;SDS011;31788;6.954;-71.872;2023-01-28T15:13:47;8.63;;;4.55;;
46054;SDS011;31788;6.954;-71.872;2023-01-28T15:16:18;6.90;;;4.22;;
46054;SDS011;31788;6.954;-71.872;2023-01-28T15:18:53;8.90;;;4.40;;
46054;SDS011;31788;6.954;-71.872;2023-01-28T15:21:22;7.90;;;4.00;;
46054;SDS011;31788;6.954;-71.872;2023-01-28T15:23:50;8.45;;;4.40;;
46054;SDS011;31788;6.954;-71.872;2023-01-28T15:26:22;6.80;;;4.13;;
46054;SDS011;31788;6.954;-71.872;2023-01-28T15:28:57;8.75;;;3.95;;
46054;SDS011;31788;6.954;-71.872;2023-01-28T15:31:25;21.73;;;5.75;;
46054;SDS011;31788;6.954;-71.872;2023-01-28T15:36:55;15.00;;;4.55;;
46054;SDS011;31788;6.954;-71.872;2023-01-28T15:39:25;12.20;;;4.47;;
46054;SDS011;31788;6.954;-71.872;2023-01-28T15:41:54;14.03;;;5.20;;
46054;SDS011;31788;6.954;-71.872;2023-01-28T15:44:29;7.97;;;4.13;;
46054;SDS011;31788;6.954;-71.872;2023-01-28T15:47:04;10.88;;;4.50;;
46054;SDS011;31788;6.954;-71.872;2023-01-28T15:49:49;10.73;;;4.95;;
46054;SDS011;31788;6.954;-71.872;2023-01-28T15:52:19;8.18;;;4.07;;
46054;SDS011;31788;6.954;-71.872;2023-01-28T15:54:47;8.47;;;4.50;;
46054;SDS011;31788;6.954;-71.872;2023-01-28T15:57:20;8.23;;;4.10;;
46054;SDS011;31788;6.954;-71.872;2023-01-28T16:00:11;8.02;;;4.22;;
46054;SDS011;31788;6.954;-71.872;2023-01-28T16:02:42;9.65;;;4.38;;
46054;SDS011;31788;6.954;-71.872;2023-01-28T16:05:26;9.02;;;4.30;;
46054;SDS011;31788;6.954;-71.872;2023-01-28T16:07:53;10.73;;;4.35;;
46054;SDS011;31788;6.954;-71.872;2023-01-28T16:10:24;7.60;;;4.22;;
46054;SDS011;31788;6.954;-71.872;2023-01-28T16:12:54;7.40;;;4.35;;
46054;SDS011;31788;6.954;-71.872;2023-01-28T16:15:47;7.70;;;4.40;;
46054;SDS011;31788;6.954;-71.872;2023-01-28T16:21:05;7.25;;;4.00;;
46054;SDS011;31788;6.954;-71.872;2023-01-28T16:23:33;9.98;;;4.43;;
46054;SDS011;31788;6.954;-71.872;2023-01-28T16:26:01;9.13;;;4.20;;
46054;SDS011;31788;6.954;-71.872;2023-01-28T16:28:29;9.50;;;4.40;;
46054;SDS011;31788;6.954;-71.872;2023-01-28T16:30:57;9.00;;;4.22;;
46054;SDS011;31788;6.954;-71.872;2023-01-28T16:33:24;6.93;;;4.35;;
46054;SDS011;31788;6.954;-71.872;2023-01-28T16:35:51;8.67;;;4.03;;
46054;SDS011;31788;6.954;-71.872;2023-01-28T16:38:19;6.80;;;4.07;;
46054;SDS011;31788;6.954;-71.872;2023-01-28T16:40:46;9.05;;;3.75;;
46054;SDS011;31788;6.954;-71.872;2023-01-28T16:43:13;6.83;;;3.90;;
46054;SDS011;31788;6.954;-71.872;2023-01-28T16:45:41;7.35;;;4.10;;
46054;SDS011;31788;6.954;-71.872;2023-01-28T16:48:08;7.35;;;4.20;;
46054;SDS011;31788;6.954;-71.872;2023-01-28T16:50:36;8.30;;;4.18;;
46054;SDS011;31788;6.954;-71.872;2023-01-28T16:53:17;6.80;;;4.00;;
46054;SDS011;31788;6.954;-71.872;2023-01-28T16:55:54;8.80;;;4.38;;
46054;SDS011;31788;6.954;-71.872;2023-01-28T16:58:24;7.78;;;3.88;;
46054;SDS011;31788;6.954;-71.872;2023-01-28T17:00:51;10.10;;;4.10;;
46054;SDS011;31788;6.954;-71.872;2023-01-28T17:03:18;6.13;;;4.10;;
46054;SDS011;31788;6.954;-71.872;2023-01-28T17:05:45;8.38;;;4.05;;
46054;SDS011;31788;6.954;-71.872;2023-01-28T17:08:12;8.23;;;4.20;;
46054;SDS011;31788;6.954;-71.872;2023-01-28T17:10:38;7.47;;;4.60;;
46054;SDS011;31788;6.954;-71.872;2023-01-28T17:13:05;6.97;;;4.10;;
46054;SDS011;31788;6.954;-71.872;2023-01-28T17:15:33;7.85;;;4.07;;
46054;SDS011;31788;6.954;-71.872;2023-01-28T17:18:00;8.70;;;4.00;;
46054;SDS011;31788;6.954;-71.872;2023-01-28T17:20:27;7.32;;;4.10;;